Time;durP1;ratioP1;P1;durP2;ratioP2;P2;SDS_P1;SDS_P2;PMS_P1;PMS_P2;Temp;Humidity;BMP_temperature;BMP_pressure;BME280_temperature;BME280_humidity;BME280_pressure;Samples;Min_cycle;Max_cycle;Signal;HPM_P1;HPM_P2
2022/12/02 00:02:26;;;;;;;26.27;14.70;;;2.00;1.00;;;;;;10473973;28;20192;-84
2022/12/02 00:07:50;;;;;;;28.53;14.83;;;2.00;1.00;;;;;;10452156;28;20509;-88
2022/12/02 00:13:36;;;;;;;26.93;13.67;;;2.00;1.00;;;;;;10449322;28;20230;-79
2022/12/02 00:18:57;;;;;;;26.03;14.37;;;2.00;1.00;;;;;;10448679;28;20544;-87
2022/12/02 00:24:19;;;;;;;31.93;15.33;;;2.10;1.00;;;;;;10452205;28;20235;-81
2022/12/02 00:29:40;;;;;;;27.70;14.70;;;2.00;1.00;;;;;;10429797;28;20426;-88
2022/12/02 00:35:01;;;;;;;22.93;13.93;;;2.00;1.00;;;;;;10465564;28;20294;-86
2022/12/02 00:40:23;;;;;;;26.50;14.83;;;2.10;1.00;;;;;;10447793;28;20415;-82
2022/12/02 00:51:25;;;;;;;26.23;14.00;;;2.00;1.00;;;;;;10448884;28;20431;-79
2022/12/02 00:56:46;;;;;;;23.90;14.43;;;2.00;1.00;;;;;;10518301;28;20227;-79
2022/12/02 01:02:07;;;;;;;24.70;13.90;;;2.00;1.00;;;;;;10407402;28;20204;-80
2022/12/02 01:07:29;;;;;;;25.30;14.03;;;2.10;1.00;;;;;;10423650;28;20525;-87
2022/12/02 01:12:50;;;;;;;24.43;14.60;;;2.00;1.00;;;;;;10392922;28;20232;-86
2022/12/02 01:18:13;;;;;;;26.10;15.63;;;2.00;1.00;;;;;;10392930;28;20203;-86
2022/12/02 01:23:34;;;;;;;28.73;14.80;;;2.00;23.90;;;;;;10443401;28;20251;-88
2022/12/02 01:28:56;;;;;;;26.20;15.00;;;2.00;1.00;;;;;;10451433;28;20226;-84
2022/12/02 01:34:17;;;;;;;27.67;16.00;;;2.10;1.00;;;;;;10433315;28;20537;-85
2022/12/02 01:39:38;;;;;;;26.93;15.10;;;2.10;1.00;;;;;;10446925;28;20384;-89
2022/12/02 01:45:00;;;;;;;27.33;15.47;;;2.10;8.20;;;;;;10462917;28;20373;-82
2022/12/02 01:50:22;;;;;;;24.77;14.87;;;2.10;1.00;;;;;;10463177;28;20188;-87
2022/12/02 01:55:43;;;;;;;27.00;15.07;;;2.10;1.00;;;;;;10482462;28;20223;-89
2022/12/02 02:01:22;;;;;;;25.27;15.60;;;2.00;1.00;;;;;;10445685;28;20198;-86
2022/12/02 02:06:46;;;;;;;31.57;16.20;;;2.00;99.90;;;;;;10440463;28;20524;-84
2022/12/02 02:12:08;;;;;;;27.13;16.47;;;2.00;99.90;;;;;;10440461;28;20210;-84
2022/12/02 02:17:29;;;;;;;29.63;18.33;;;2.00;99.90;;;;;;10470348;28;20249;-81
2022/12/02 02:23:05;;;;;;;33.30;17.63;;;2.00;1.00;;;;;;10439569;28;20234;-80
2022/12/02 02:28:30;;;;;;;36.00;19.30;;;2.00;1.00;;;;;;10467005;28;20249;-88
2022/12/02 02:33:51;;;;;;;38.80;18.60;;;2.00;1.00;;;;;;10453055;28;20227;-88
2022/12/02 02:39:13;;;;;;;34.50;19.17;;;2.00;1.00;;;;;;10469600;28;20195;-82
2022/12/02 02:44:35;;;;;;;34.23;19.10;;;2.00;1.00;;;;;;10469424;28;20199;-85
2022/12/02 02:49:56;;;;;;;36.77;19.20;;;2.00;1.00;;;;;;10452029;28;20222;-89
2022/12/02 02:55:21;;;;;;;36.53;20.57;;;2.10;56.00;;;;;;10477654;28;20219;-82
2022/12/02 03:00:51;;;;;;;40.00;22.57;;;2.10;44.80;;;;;;10509772;28;20191;-84
2022/12/02 03:06:14;;;;;;;41.77;21.50;;;2.10;99.90;;;;;;10475806;28;20226;-85
2022/12/02 03:11:37;;;;;;;48.10;23.53;;;2.00;99.90;;;;;;10437866;28;20210;-86
2022/12/02 03:17:01;;;;;;;46.27;24.00;;;1.90;1.00;;;;;;10451483;28;20246;-88
2022/12/02 03:22:23;;;;;;;41.60;21.50;;;1.90;1.00;;;;;;10467933;28;20399;-86
2022/12/02 03:27:44;;;;;;;43.90;22.50;;;1.90;1.00;;;;;;10472221;28;20206;-88
2022/12/02 03:33:05;;;;;;;40.10;21.33;;;1.80;1.00;;;;;;10524124;28;20516;-89
2022/12/02 03:38:27;;;;;;;48.23;23.03;;;1.80;1.00;;;;;;10463740;28;20410;-85
2022/12/02 03:43:48;;;;;;;40.73;20.67;;;1.80;1.00;;;;;;10453420;28;20195;-83
2022/12/02 03:49:10;;;;;;;41.10;19.57;;;1.70;1.00;;;;;;10436392;28;20193;-87
2022/12/02 03:54:32;;;;;;;38.27;18.90;;;1.70;1.00;;;;;;10471171;28;20219;-80
2022/12/02 03:59:55;;;;;;;39.50;19.73;;;1.70;1.00;;;;;;10490669;28;20194;-83
2022/12/02 04:05:16;;;;;;;42.70;20.33;;;1.60;1.00;;;;;;10494612;28;20227;-80
2022/12/02 04:10:37;;;;;;;42.93;20.03;;;1.60;1.00;;;;;;10422502;28;20191;-85
2022/12/02 04:15:58;;;;;;;39.67;19.77;;;1.50;1.00;;;;;;10425507;28;20596;-83
2022/12/02 04:21:20;;;;;;;39.87;20.63;;;1.50;1.00;;;;;;10414495;28;20265;-78
2022/12/02 04:26:41;;;;;;;38.03;18.73;;;1.50;1.00;;;;;;10481487;28;20195;-80
2022/12/02 04:32:04;;;;;;;35.23;18.37;;;1.50;1.00;;;;;;10462551;28;20428;-79
2022/12/02 04:37:25;;;;;;;39.87;19.97;;;1.40;1.00;;;;;;10450525;28;20198;-79
2022/12/02 04:42:46;;;;;;;41.67;18.90;;;1.30;1.00;;;;;;10433711;28;20209;-79
2022/12/02 04:48:07;;;;;;;34.97;18.13;;;1.30;1.00;;;;;;10433349;28;20217;-79
2022/12/02 04:53:28;;;;;;;41.97;19.97;;;1.40;1.00;;;;;;10471273;28;20224;-79
2022/12/02 04:58:50;;;;;;;52.77;24.00;;;1.40;1.00;;;;;;10488149;28;20243;-79
2022/12/02 05:04:11;;;;;;;49.93;25.07;;;1.40;1.00;;;;;;10504739;28;20197;-81
2022/12/02 05:09:32;;;;;;;55.57;26.00;;;1.30;1.00;;;;;;10405858;28;20194;-79
2022/12/02 05:14:53;;;;;;;49.63;22.80;;;1.30;1.00;;;;;;10436836;28;20299;-82
2022/12/02 05:20:15;;;;;;;49.13;22.60;;;1.30;1.00;;;;;;10436883;28;20202;-82
2022/12/02 05:25:36;;;;;;;52.07;22.90;;;1.30;1.00;;;;;;10462503;28;20233;-80
2022/12/02 05:30:57;;;;;;;50.93;23.17;;;1.30;1.00;;;;;;10470411;28;20198;-80
2022/12/02 05:36:18;;;;;;;45.67;21.07;;;1.30;1.00;;;;;;10470695;28;20215;-79
2022/12/02 05:41:40;;;;;;;47.97;22.27;;;1.30;1.00;;;;;;10457155;28;20183;-81
2022/12/02 05:47:05;;;;;;;45.87;23.23;;;1.30;1.00;;;;;;10454196;28;20484;-81
2022/12/02 05:52:28;;;;;;;51.87;23.07;;;1.20;1.00;;;;;;10443287;28;20432;-79
2022/12/02 05:57:49;;;;;;;41.03;19.87;;;1.20;1.00;;;;;;10513866;28;20190;-79
2022/12/02 06:03:17;;;;;;;46.17;20.20;;;1.10;1.00;;;;;;10481480;28;20415;-83
2022/12/02 06:08:38;;;;;;;45.97;21.30;;;1.10;1.00;;;;;;10473845;28;20203;-79
2022/12/02 06:14:05;;;;;;;45.73;22.30;;;1.10;1.00;;;;;;10453623;28;20226;-86
2022/12/02 06:19:43;;;;;;;61.80;29.20;;;1.10;1.00;;;;;;10469956;28;20199;-79
2022/12/02 06:25:22;;;;;;;48.73;23.60;;;1.10;1.00;;;;;;10438066;28;20300;-80
2022/12/02 06:30:43;;;;;;;51.23;22.97;;;1.10;1.00;;;;;;10414193;28;20228;-79
2022/12/02 06:36:10;;;;;;;48.37;22.20;;;1.10;1.00;;;;;;10425740;28;20225;-81
2022/12/02 06:41:36;;;;;;;50.37;22.77;;;1.00;1.00;;;;;;10451999;28;20192;-82
2022/12/02 06:46:59;;;;;;;48.43;23.00;;;1.00;1.00;;;;;;10455402;28;20290;-82
2022/12/02 06:52:21;;;;;;;46.73;22.30;;;1.00;1.00;;;;;;10452406;28;20207;-80
2022/12/02 06:57:42;;;;;;;44.93;22.07;;;1.10;1.00;;;;;;10493194;28;20281;-79
2022/12/02 07:03:19;;;;;;;44.97;21.50;;;1.10;1.00;;;;;;10492833;28;20204;-79
2022/12/02 07:08:40;;;;;;;47.23;22.40;;;1.10;1.00;;;;;;10468606;28;20198;-79
2022/12/02 07:14:01;;;;;;;52.57;23.93;;;1.00;1.00;;;;;;10437363;28;20223;-80
2022/12/02 07:19:42;;;;;;;42.97;21.53;;;1.00;1.00;;;;;;10468596;28;20229;-79
2022/12/02 07:25:07;;;;;;;45.70;22.83;;;1.00;1.00;;;;;;10450650;28;20222;-82
2022/12/02 07:30:35;;;;;;;36.43;19.00;;;1.10;1.00;;;;;;10410087;28;20245;-79
2022/12/02 07:35:57;;;;;;;55.20;24.00;;;1.10;1.00;;;;;;10425650;28;20220;-79
2022/12/02 07:41:19;;;;;;;54.77;26.97;;;1.10;1.00;;;;;;10409204;28;20566;-80
2022/12/02 07:46:41;;;;;;;53.73;25.67;;;0.90;1.00;;;;;;10408596;28;20490;-84
2022/12/02 07:52:02;;;;;;;56.13;24.37;;;0.90;1.00;;;;;;10445253;28;20377;-81
2022/12/02 07:57:24;;;;;;;49.10;22.83;;;1.00;1.00;;;;;;10452163;28;20218;-81
2022/12/02 08:02:45;;;;;;;51.27;23.60;;;0.90;1.00;;;;;;10462453;28;20202;-80
2022/12/02 08:08:07;;;;;;;64.13;28.13;;;0.80;1.00;;;;;;10465385;28;20389;-83
2022/12/02 08:13:28;;;;;;;66.20;31.23;;;0.90;1.00;;;;;;10448235;28;20238;-81
2022/12/02 08:18:49;;;;;;;49.63;22.30;;;0.90;1.00;;;;;;10435097;28;20197;-81
2022/12/02 08:24:10;;;;;;;50.97;24.33;;;0.90;1.00;;;;;;10441370;28;20248;-80
2022/12/02 08:29:33;;;;;;;54.37;26.20;;;0.90;1.00;;;;;;10434446;28;20386;-78
2022/12/02 08:34:54;;;;;;;48.03;22.60;;;0.90;1.00;;;;;;10426720;28;20235;-85
2022/12/02 08:40:15;;;;;;;47.53;22.10;;;0.90;1.00;;;;;;10470179;28;20481;-84
2022/12/02 08:45:37;;;;;;;42.30;19.33;;;1.00;1.00;;;;;;10501923;28;20538;-84
2022/12/02 08:50:58;;;;;;;51.93;23.97;;;0.90;1.00;;;;;;10468663;28;20192;-83
2022/12/02 08:56:19;;;;;;;43.33;19.90;;;0.90;1.00;;;;;;10494799;28;20545;-85
2022/12/02 09:01:40;;;;;;;46.60;23.40;;;0.90;1.00;;;;;;10474979;28;20209;-84
2022/12/02 09:07:01;;;;;;;48.87;22.87;;;0.90;1.00;;;;;;10492548;28;20243;-84
2022/12/02 09:12:24;;;;;;;50.17;20.80;;;1.00;1.00;;;;;;10522014;28;20199;-84
2022/12/02 09:17:47;;;;;;;41.80;20.77;;;0.90;1.00;;;;;;10477981;28;20243;-82
2022/12/02 09:23:08;;;;;;;43.93;21.87;;;0.80;1.00;;;;;;10446848;28;20230;-84
2022/12/02 09:28:29;;;;;;;45.77;22.80;;;0.70;1.00;;;;;;10434350;28;20202;-85
2022/12/02 09:33:50;;;;;;;47.93;21.97;;;0.60;1.00;;;;;;10438867;28;20218;-83
2022/12/02 09:39:12;;;;;;;41.80;22.93;;;0.60;1.00;;;;;;10470506;28;20224;-84
2022/12/02 09:44:33;;;;;;;45.60;23.93;;;0.70;1.00;;;;;;10454961;28;20201;-85
2022/12/02 09:49:55;;;;;;;41.73;20.77;;;0.80;1.00;;;;;;10436548;28;20210;-83
2022/12/02 09:55:19;;;;;;;50.53;22.80;;;0.70;1.00;;;;;;10453870;28;20245;-83
2022/12/02 10:00:40;;;;;;;33.67;17.97;;;0.60;1.00;;;;;;10443872;28;20561;-82
2022/12/02 10:06:06;;;;;;;36.93;18.20;;;0.50;1.00;;;;;;10430404;28;20361;-82
2022/12/02 10:11:33;;;;;;;42.43;20.37;;;0.50;1.00;;;;;;10464209;28;20197;-82
2022/12/02 10:16:55;;;;;;;37.30;18.70;;;0.60;1.00;;;;;;10452127;28;20252;-82
2022/12/02 10:22:19;;;;;;;38.50;20.00;;;0.60;1.00;;;;;;10461819;28;20272;-82
2022/12/02 10:27:40;;;;;;;47.37;23.83;;;0.60;1.00;;;;;;10440785;28;20277;-82
2022/12/02 10:33:04;;;;;;;52.90;25.47;;;0.60;1.00;;;;;;10457673;28;20216;-85
2022/12/02 10:38:46;;;;;;;45.17;24.53;;;0.70;1.00;;;;;;10437422;28;20210;-84
2022/12/02 10:44:18;;;;;;;58.57;31.00;;;0.70;1.00;;;;;;10452106;28;20234;-84
2022/12/02 10:49:44;;;;;;;47.83;25.90;;;0.70;1.00;;;;;;10448655;28;20201;-85
2022/12/02 10:55:09;;;;;;;35.53;20.47;;;0.70;1.00;;;;;;10458000;28;20456;-81
2022/12/02 11:00:33;;;;;;;41.13;20.13;;;0.70;1.00;;;;;;10463218;28;20206;-82
2022/12/02 11:06:01;;;;;;;43.20;22.07;;;0.70;1.00;;;;;;10436229;28;20208;-83
2022/12/02 11:11:22;;;;;;;49.97;27.73;;;0.70;1.00;;;;;;10433513;28;20248;-84
2022/12/02 11:16:46;;;;;;;44.77;25.03;;;0.70;99.90;;;;;;10435540;28;20240;-83
2022/12/02 11:22:48;;;;;;;44.77;22.47;;;0.80;99.90;;;;;;10468446;28;20238;-85
2022/12/02 11:28:28;;;;;;;52.27;26.93;;;0.70;99.90;;;;;;10446114;28;20519;-82
2022/12/02 11:33:54;;;;;;;62.63;31.40;;;0.70;1.00;;;;;;10438901;28;20250;-83
2022/12/02 11:39:40;;;;;;;59.10;30.13;;;0.70;1.00;;;;;;10428426;28;20499;-89
2022/12/02 11:45:40;;;;;;;52.83;23.87;;;0.60;1.00;;;;;;10446327;28;20275;-83
2022/12/02 11:51:01;;;;;;;61.73;30.70;;;0.60;1.00;;;;;;10431207;28;20212;-82
2022/12/02 11:56:26;;;;;;;55.83;26.40;;;0.60;1.00;;;;;;10426540;28;20255;-82
2022/12/02 12:01:47;;;;;;;44.67;22.37;;;0.60;99.90;;;;;;10466750;28;20280;-84
2022/12/02 12:07:09;;;;;;;46.53;22.37;;;0.50;99.90;;;;;;10421234;28;20225;-81
2022/12/02 12:12:30;;;;;;;32.50;17.07;;;0.50;99.90;;;;;;10416388;28;20255;-81
2022/12/02 12:17:51;;;;;;;32.67;16.97;;;0.60;99.90;;;;;;10413980;28;20657;-81
2022/12/02 12:23:34;;;;;;;41.80;21.63;;;0.70;99.90;;;;;;10424866;28;20262;-84
2022/12/02 12:28:55;;;;;;;44.57;22.83;;;0.80;99.90;;;;;;10421495;28;20217;-85
2022/12/02 12:34:17;;;;;;;34.57;18.47;;;0.80;99.90;;;;;;10431928;28;20243;-82
2022/12/02 12:39:38;;;;;;;32.30;17.03;;;0.80;99.90;;;;;;10449631;28;20212;-81
2022/12/02 12:45:00;;;;;;;43.87;20.37;;;0.80;99.90;;;;;;10450087;28;20285;-82
2022/12/02 12:50:21;;;;;;;47.00;22.63;;;0.80;99.90;;;;;;10417666;28;20212;-84
2022/12/02 12:55:45;;;;;;;47.87;22.00;;;0.80;99.90;;;;;;10434925;28;20397;-83
2022/12/02 13:01:32;;;;;;;46.27;23.97;;;0.90;99.90;;;;;;10423607;28;20211;-80
2022/12/02 13:07:09;;;;;;;52.93;24.63;;;1.00;99.90;;;;;;10429432;28;20217;-81
2022/12/02 13:12:30;;;;;;;49.57;23.73;;;1.00;79.10;;;;;;10432455;28;20203;-85
2022/12/02 13:17:51;;;;;;;43.23;22.60;;;0.90;89.20;;;;;;10454196;28;20296;-91
2022/12/02 13:23:13;;;;;;;46.73;24.83;;;0.90;79.00;;;;;;10445657;28;20254;-82
2022/12/02 13:28:34;;;;;;;40.07;22.17;;;0.80;81.50;;;;;;10440338;28;20418;-84
2022/12/02 13:33:55;;;;;;;36.33;19.37;;;0.80;99.90;;;;;;10414634;28;20550;-82
2022/12/02 13:39:17;;;;;;;47.70;21.57;;;0.90;99.90;;;;;;10442518;28;20225;-81
2022/12/02 13:44:38;;;;;;;42.17;23.07;;;0.90;99.90;;;;;;10443057;28;20201;-81
2022/12/02 13:49:59;;;;;;;49.10;24.33;;;0.90;99.90;;;;;;10438444;28;20222;-82
2022/12/02 13:55:22;;;;;;;41.93;22.73;;;0.90;99.90;;;;;;10485655;28;20256;-82
2022/12/02 14:00:43;;;;;;;45.33;23.60;;;0.90;99.90;;;;;;10434516;28;20197;-82
2022/12/02 14:06:05;;;;;;;47.67;22.37;;;0.90;99.90;;;;;;10460496;28;20213;-83
2022/12/02 14:11:27;;;;;;;44.77;23.17;;;0.80;99.90;;;;;;10418186;28;20226;-81
2022/12/02 14:16:49;;;;;;;39.07;22.27;;;0.80;99.90;;;;;;10453287;28;20222;-84
2022/12/02 14:22:10;;;;;;;35.37;19.83;;;0.80;99.90;;;;;;10434185;28;20226;-90
2022/12/02 14:27:31;;;;;;;46.73;22.80;;;0.80;99.90;;;;;;10444689;28;20234;-82
2022/12/02 14:32:52;;;;;;;44.60;21.97;;;0.70;99.90;;;;;;10448844;28;20198;-82
2022/12/02 14:38:14;;;;;;;49.07;24.27;;;0.60;99.90;;;;;;10447307;28;20269;-83
2022/12/02 14:43:36;;;;;;;44.87;21.60;;;0.60;99.90;;;;;;10438603;28;20206;-83
2022/12/02 14:48:58;;;;;;;45.40;20.97;;;0.60;99.90;;;;;;10439973;28;20297;-83
2022/12/02 14:54:31;;;;;;;43.83;22.40;;;0.40;1.00;;;;;;10437045;28;20237;-84
2022/12/02 14:59:52;;;;;;;43.00;21.67;;;0.50;1.00;;;;;;10467017;28;20519;-81
2022/12/02 15:05:27;;;;;;;64.17;26.93;;;0.40;1.00;;;;;;10440311;28;20211;-82
2022/12/02 15:10:50;;;;;;;53.43;27.13;;;0.50;99.90;;;;;;10441249;28;20231;-83
2022/12/02 15:16:11;;;;;;;61.03;29.83;;;0.40;99.90;;;;;;10431345;28;20301;-81
2022/12/02 15:21:39;;;;;;;56.87;28.70;;;0.40;99.90;;;;;;10455983;28;20248;-82
2022/12/02 15:27:01;;;;;;;48.43;28.30;;;0.40;99.90;;;;;;10469312;28;20204;-81
2022/12/02 15:32:22;;;;;;;48.60;27.23;;;0.40;99.90;;;;;;10421932;28;20197;-83
2022/12/02 15:37:43;;;;;;;47.63;25.40;;;0.20;99.90;;;;;;10450756;28;20231;-86
2022/12/02 15:43:05;;;;;;;48.30;25.27;;;0.20;99.90;;;;;;10432991;28;20281;-84
2022/12/02 15:48:28;;;;;;;44.60;23.07;;;0.20;99.90;;;;;;10407867;28;20220;-83
2022/12/02 15:53:50;;;;;;;63.20;30.33;;;0.20;99.90;;;;;;10453972;28;20210;-83
2022/12/02 15:59:11;;;;;;;67.87;33.17;;;0.20;99.90;;;;;;10451006;28;20259;-85
2022/12/02 16:04:32;;;;;;;72.30;31.73;;;0.10;99.90;;;;;;10456840;28;20272;-87
2022/12/02 16:09:54;;;;;;;56.50;27.17;;;0.00;99.90;;;;;;10456672;28;20202;-83
2022/12/02 16:15:15;;;;;;;60.83;33.38;;;0.00;99.90;;;;;;10446413;28;20788;-83
2022/12/02 16:20:36;;;;;;;56.07;31.93;;;0.10;99.90;;;;;;10464692;28;20235;-86
2022/12/02 16:25:57;;;;;;;58.83;32.77;;;0.10;99.90;;;;;;10436936;28;20314;-82
2022/12/02 16:31:20;;;;;;;51.60;28.17;;;0.10;99.90;;;;;;10466238;28;20201;-83
2022/12/02 16:36:42;;;;;;;53.30;29.60;;;0.20;8.90;;;;;;10475510;28;20218;-86
2022/12/02 16:42:05;;;;;;;81.73;40.33;;;0.00;99.90;;;;;;10452006;28;20229;-84
2022/12/02 16:47:26;;;;;;;66.43;31.60;;;0.00;1.00;;;;;;10448547;28;20232;-82
2022/12/02 16:52:48;;;;;;;61.30;31.73;;;-0.20;66.50;;;;;;10465112;28;20495;-81
2022/12/02 16:58:09;;;;;;;67.90;33.23;;;-0.10;99.90;;;;;;10447472;28;20224;-88
2022/12/02 17:03:32;;;;;;;62.13;31.07;;;-0.10;99.90;;;;;;10463525;28;20195;-92
2022/12/02 17:08:53;;;;;;;49.83;26.97;;;-0.10;99.90;;;;;;10434574;28;20276;-89
2022/12/02 17:14:15;;;;;;;59.17;30.83;;;0.00;75.50;;;;;;10447563;28;20504;-81
2022/12/02 17:19:36;;;;;;;68.33;37.63;;;-0.10;38.80;;;;;;10464479;28;20193;-88
2022/12/02 17:24:57;;;;;;;71.23;35.23;;;-0.10;99.90;;;;;;10421989;28;20240;-82
2022/12/02 17:30:19;;;;;;;74.37;36.27;;;-0.10;90.20;;;;;;10466475;28;20500;-84
2022/12/02 17:35:40;;;;;;;73.90;37.83;;;-0.20;99.90;;;;;;10461708;28;20234;-89
2022/12/02 17:41:10;;;;;;;76.23;36.73;;;-0.30;99.90;;;;;;10450484;28;20225;-81
2022/12/02 17:46:31;;;;;;;61.30;33.20;;;-0.20;99.90;;;;;;10456951;28;20214;-85
2022/12/02 17:51:53;;;;;;;55.87;26.57;;;-0.20;99.90;;;;;;10423488;28;20195;-92
2022/12/02 17:57:34;;;;;;;54.93;27.53;;;-0.30;99.90;;;;;;10428895;28;20257;-90
2022/12/02 18:02:55;;;;;;;59.97;30.80;;;-0.40;99.90;;;;;;10452677;28;20189;-91
2022/12/02 18:08:18;;;;;;;59.77;31.20;;;-0.40;99.90;;;;;;10478853;28;20230;-88
2022/12/02 18:13:39;;;;;;;60.57;30.57;;;-0.30;99.90;;;;;;10465811;28;20197;-91
2022/12/02 18:19:01;;;;;;;60.70;30.07;;;-0.40;99.90;;;;;;10463840;28;20300;-93
2022/12/02 18:24:22;;;;;;;55.73;30.77;;;-0.40;1.00;;;;;;10488384;28;20236;-93
2022/12/02 18:29:44;;;;;;;54.73;28.80;;;-0.40;99.90;;;;;;10494752;28;20269;-88
2022/12/02 18:35:06;;;;;;;60.70;28.93;;;-0.40;99.90;;;;;;10463534;28;20416;-80
2022/12/02 18:40:27;;;;;;;73.00;32.97;;;-0.40;99.90;;;;;;10439499;28;20522;-85
2022/12/02 18:45:48;;;;;;;58.57;28.23;;;-0.50;1.00;;;;;;10452929;28;20402;-86
2022/12/02 18:51:09;;;;;;;58.30;28.17;;;-0.40;1.00;;;;;;10452702;28;20203;-92
2022/12/02 18:56:31;;;;;;;63.90;31.53;;;-0.40;1.00;;;;;;10438708;28;20266;-87
2022/12/02 19:01:52;;;;;;;56.93;30.07;;;-0.40;99.90;;;;;;10452875;28;20209;-89
2022/12/02 19:07:14;;;;;;;50.83;26.07;;;-0.40;1.00;;;;;;10497015;28;20189;-82
2022/12/02 19:12:35;;;;;;;55.33;25.90;;;-0.50;99.90;;;;;;10479481;28;20383;-87
2022/12/02 19:17:57;;;;;;;70.83;35.70;;;-0.40;99.90;;;;;;10478426;28;20236;-82
2022/12/02 19:23:18;;;;;;;72.77;35.73;;;-0.40;99.90;;;;;;10493163;28;20228;-85
2022/12/02 19:28:39;;;;;;;72.40;34.43;;;-0.40;99.90;;;;;;10435818;28;20253;-81
2022/12/02 19:34:01;;;;;;;66.43;32.17;;;-0.40;99.90;;;;;;10438564;28;20424;-87
2022/12/02 19:39:22;;;;;;;82.83;39.23;;;-0.40;99.90;;;;;;10450681;28;20226;-82
2022/12/02 19:44:43;;;;;;;73.53;36.87;;;-0.30;99.90;;;;;;10450941;28;20197;-90
2022/12/02 19:50:06;;;;;;;73.80;36.33;;;-0.30;99.90;;;;;;10450723;28;20210;-87
2022/12/02 19:55:27;;;;;;;75.40;36.67;;;-0.40;99.90;;;;;;10450937;28;20240;-87
2022/12/02 20:00:48;;;;;;;73.03;35.93;;;-0.50;99.90;;;;;;10450394;28;20275;-91
2022/12/02 20:06:10;;;;;;;72.83;37.33;;;-0.40;1.00;;;;;;10458507;28;20201;-86
2022/12/02 20:11:31;;;;;;;79.27;35.13;;;-0.40;99.90;;;;;;10491921;28;20281;-81
2022/12/02 20:16:53;;;;;;;60.50;31.23;;;-0.40;99.90;;;;;;10508073;28;20555;-86
2022/12/02 20:22:14;;;;;;;72.53;35.80;;;-0.40;99.90;;;;;;10490791;28;20235;-87
2022/12/02 20:27:36;;;;;;;57.33;29.13;;;-0.60;99.90;;;;;;10482430;28;20205;-85
2022/12/02 20:32:57;;;;;;;58.97;26.97;;;-0.60;99.90;;;;;;10468849;28;20205;-84
2022/12/02 20:38:18;;;;;;;62.97;31.57;;;-0.60;99.90;;;;;;10449531;28;20291;-86
2022/12/02 20:43:39;;;;;;;61.60;29.53;;;-0.60;99.90;;;;;;10450271;28;20243;-88
2022/12/02 20:49:01;;;;;;;65.07;31.67;;;-0.60;99.90;;;;;;10455190;28;20227;-89
2022/12/02 20:54:22;;;;;;;62.53;32.23;;;-0.60;99.90;;;;;;10454807;28;20202;-83
2022/12/02 20:59:45;;;;;;;70.57;33.70;;;-0.60;99.90;;;;;;10467558;28;20234;-80
2022/12/02 21:05:08;;;;;;;65.00;32.87;;;-0.60;99.90;;;;;;10460382;28;20212;-86
2022/12/02 21:10:29;;;;;;;58.63;29.80;;;-0.50;99.90;;;;;;10488881;28;20205;-86
2022/12/02 21:15:51;;;;;;;56.30;28.23;;;-0.40;99.90;;;;;;10474276;28;20222;-81
2022/12/02 21:21:12;;;;;;;60.47;28.43;;;-0.50;44.80;;;;;;10487902;28;20246;-80
2022/12/02 21:26:33;;;;;;;67.17;31.40;;;-0.50;99.90;;;;;;10460481;28;20203;-81
2022/12/02 21:31:55;;;;;;;65.20;30.13;;;-0.50;99.90;;;;;;10478927;28;20228;-81
2022/12/02 21:37:16;;;;;;;64.47;32.20;;;-0.50;99.90;;;;;;10442013;28;20248;-89
2022/12/02 21:42:37;;;;;;;75.37;34.23;;;-0.50;99.90;;;;;;10463603;28;20202;-85
2022/12/02 21:47:58;;;;;;;60.87;32.77;;;-0.50;99.90;;;;;;10448950;28;20238;-81
2022/12/02 21:53:20;;;;;;;60.63;31.63;;;-0.40;99.90;;;;;;10446274;28;20198;-89
2022/12/02 21:58:41;;;;;;;72.30;34.20;;;-0.40;99.90;;;;;;10446106;28;20245;-82
2022/12/02 22:04:04;;;;;;;71.27;35.90;;;-0.50;1.00;;;;;;10450771;28;20274;-88
2022/12/02 22:09:25;;;;;;;59.03;32.97;;;-0.50;99.90;;;;;;10489974;28;20427;-93
2022/12/02 22:14:46;;;;;;;62.60;30.03;;;-0.50;10.60;;;;;;10498410;28;20220;-84
2022/12/02 22:20:09;;;;;;;52.17;26.90;;;-0.50;16.00;;;;;;10520706;28;20183;-84
2022/12/02 22:25:34;;;;;;;48.27;25.97;;;-0.50;1.00;;;;;;10499900;28;20225;-91
2022/12/02 22:30:56;;;;;;;45.73;22.93;;;-0.60;99.90;;;;;;10456628;28;20189;-87
2022/12/02 22:36:17;;;;;;;42.50;24.27;;;-0.60;1.00;;;;;;10473905;28;20275;-86
2022/12/02 22:41:38;;;;;;;40.83;22.17;;;-0.50;1.00;;;;;;10453421;28;20391;-89
2022/12/02 22:46:59;;;;;;;36.03;21.73;;;-0.50;1.00;;;;;;10439213;28;20209;-89
2022/12/02 22:52:20;;;;;;;49.93;26.43;;;-0.50;54.50;;;;;;10439100;28;20419;-85
2022/12/02 22:57:42;;;;;;;41.53;21.93;;;-0.50;1.00;;;;;;10438882;28;20231;-85
2022/12/02 23:03:03;;;;;;;38.57;20.40;;;-0.60;1.00;;;;;;10438603;28;20398;-91
2022/12/02 23:08:25;;;;;;;35.73;17.50;;;-0.60;26.50;;;;;;10423159;28;20300;-81
2022/12/02 23:13:46;;;;;;;35.90;19.13;;;-0.70;99.90;;;;;;10410397;28;20416;-81
2022/12/02 23:19:07;;;;;;;35.53;21.07;;;-0.80;1.00;;;;;;10410246;28;20549;-83
2022/12/02 23:24:28;;;;;;;42.87;21.50;;;-0.90;1.00;;;;;;10426595;28;20252;-80
2022/12/02 23:29:50;;;;;;;43.93;24.30;;;-0.80;47.00;;;;;;10412486;28;20198;-80
2022/12/02 23:35:11;;;;;;;49.00;24.63;;;-0.90;99.90;;;;;;10450077;28;20201;-81
2022/12/02 23:40:32;;;;;;;40.50;22.90;;;-1.00;99.90;;;;;;10436426;28;20212;-80
2022/12/02 23:45:54;;;;;;;41.30;20.80;;;-1.00;1.00;;;;;;10450340;28;20219;-85
2022/12/02 23:51:15;;;;;;;37.20;20.37;;;-1.00;1.00;;;;;;10467202;28;20420;-91
2022/12/02 23:56:36;;;;;;;41.23;22.10;;;-1.10;1.00;;;;;;10436338;28;20232;-92
